createdAt,value
2022-12-04T00:02:53.701Z,100543.91
2022-12-04T00:06:03.830Z,100533.44
2022-12-04T00:09:06.106Z,100532.56
2022-12-04T00:12:08.372Z,100526.47
2022-12-04T00:15:26.943Z,100528.19
2022-12-04T00:18:29.372Z,100534.25
2022-12-04T00:21:31.771Z,100540.31
2022-12-04T00:24:34.548Z,100547.25
2022-12-04T00:27:36.442Z,100556.88
2022-12-04T00:30:41.641Z,100562.22
2022-12-04T00:33:43.753Z,100547.34
2022-12-04T00:36:46.245Z,100535.09
2022-12-04T00:39:48.223Z,100537.81
2022-12-04T00:42:50.249Z,100536.88
2022-12-04T00:45:52.538Z,100530.78
2022-12-04T00:48:55.266Z,100531.72
2022-12-04T00:51:57.228Z,100528.19
2022-12-04T00:54:59.256Z,100523.88
2022-12-04T00:58:01.235Z,100522.16
2022-12-04T01:01:09.323Z,100527.41
2022-12-04T01:04:11.529Z,100532.66
2022-12-04T01:07:13.615Z,100528.25
2022-12-04T01:10:15.836Z,100535.19
2022-12-04T01:13:17.926Z,100534.31
2022-12-04T01:16:30.704Z,100535.19
2022-12-04T01:19:32.719Z,100527.31
2022-12-04T01:22:34.852Z,100512.50
2022-12-04T01:25:36.888Z,100511.63
2022-12-04T01:28:39.470Z,100513.41
2022-12-04T01:31:41.643Z,100509.00
2022-12-04T01:34:43.865Z,100497.69
2022-12-04T01:37:45.869Z,100494.97
2022-12-04T01:40:48.237Z,100491.44
2022-12-04T01:44:14.257Z,100491.44
2022-12-04T01:47:16.254Z,100488.81
2022-12-04T01:50:18.683Z,100467.94
2022-12-04T01:53:21.335Z,100466.25
2022-12-04T01:56:29.390Z,100470.66
2022-12-04T01:59:35.770Z,100470.66
2022-12-04T02:02:47.839Z,100456.72
2022-12-04T02:05:50.140Z,100439.25
2022-12-04T02:08:52.228Z,100438.47
2022-12-04T02:12:15.885Z,100446.34
2022-12-04T02:15:29.349Z,100454.22
2022-12-04T02:18:54.059Z,100443.72
2022-12-04T02:21:59.561Z,100444.59
2022-12-04T02:25:23.398Z,100443.81
2022-12-04T02:28:28.499Z,100439.50
2022-12-04T02:32:03.460Z,100448.31
2022-12-04T02:35:16.987Z,100453.56
2022-12-04T02:38:23.377Z,100443.09
2022-12-04T02:41:42.048Z,100435.22
2022-12-04T02:44:54.158Z,100448.38
2022-12-04T02:47:59.124Z,100451.09
2022-12-04T02:51:03.726Z,100441.56
2022-12-04T02:54:20.482Z,100459.94
2022-12-04T02:57:27.664Z,100456.50
2022-12-04T03:00:31.986Z,100455.75
2022-12-04T03:03:35.300Z,100455.75
2022-12-04T03:06:40.615Z,100457.56
2022-12-04T03:09:46.868Z,100451.63
2022-12-04T03:13:17.252Z,100445.56
2022-12-04T03:16:24.694Z,100432.50
2022-12-04T03:19:29.773Z,100442.12
2022-12-04T03:22:35.137Z,100434.34
2022-12-04T03:25:44.401Z,100423.97
2022-12-04T03:29:23.649Z,100427.59
2022-12-04T03:32:39.081Z,100432.00
2022-12-04T03:35:59.186Z,100430.31
2022-12-04T03:39:12.308Z,100418.16
2022-12-04T03:42:31.728Z,100422.53
2022-12-04T03:45:47.417Z,100440.00
2022-12-04T03:49:19.541Z,100444.41
2022-12-04T03:52:28.129Z,100456.56
2022-12-04T03:55:34.761Z,100450.41
2022-12-04T03:58:41.594Z,100442.66
2022-12-04T04:01:48.968Z,100452.28
2022-12-04T04:04:56.012Z,100435.91
2022-12-04T04:08:29.666Z,100427.25
2022-12-04T04:11:38.477Z,100431.94
2022-12-04T04:15:04.832Z,100431.25
2022-12-04T04:18:25.424Z,100434.03
2022-12-04T04:21:51.271Z,100433.28
2022-12-04T04:25:11.287Z,100407.22
2022-12-04T04:28:36.517Z,100428.16
2022-12-04T04:31:43.342Z,100435.97
2022-12-04T04:34:45.241Z,100436.97
2022-12-04T04:38:20.811Z,100453.59
2022-12-04T04:41:33.183Z,100462.34
2022-12-04T04:44:46.609Z,100458.97
2022-12-04T04:48:01.161Z,100460.81
2022-12-04T04:51:04.650Z,100466.06
2022-12-04T04:54:10.322Z,100467.72
2022-12-04T04:57:12.294Z,100468.66
2022-12-04T05:00:24.246Z,100453.87
2022-12-04T05:03:27.516Z,100456.50
2022-12-04T05:06:29.520Z,100472.19
2022-12-04T05:09:31.483Z,100467.03
2022-12-04T05:12:33.851Z,100464.37
2022-12-04T05:15:36.259Z,100447.94
2022-12-04T05:18:38.569Z,100459.22
2022-12-04T05:21:41.782Z,100454.00
2022-12-04T05:24:43.747Z,100454.03
2022-12-04T05:27:45.702Z,100439.25
2022-12-04T05:30:55.568Z,100454.91
2022-12-04T05:33:57.594Z,100457.44
2022-12-04T05:36:59.855Z,100449.63
2022-12-04T05:40:01.933Z,100450.47
2022-12-04T05:43:03.972Z,100453.13
2022-12-04T05:46:08.629Z,100449.63
2022-12-04T05:49:10.679Z,100447.84
2022-12-04T05:52:14.087Z,100446.13
2022-12-04T05:55:16.064Z,100454.81
2022-12-04T05:58:18.105Z,100445.12
2022-12-04T06:01:23.273Z,100450.31
2022-12-04T06:04:25.348Z,100438.91
2022-12-04T06:07:27.446Z,100431.00
2022-12-04T06:10:29.504Z,100451.91
2022-12-04T06:13:31.423Z,100447.59
2022-12-04T06:16:39.126Z,100447.59
2022-12-04T06:19:41.337Z,100443.22
2022-12-04T06:22:43.443Z,100438.06
2022-12-04T06:25:45.433Z,100437.22
2022-12-04T06:28:47.594Z,100439.75
2022-12-04T06:31:49.753Z,100427.37
2022-12-04T06:34:55.487Z,100431.72
2022-12-04T06:37:57.487Z,100431.69
2022-12-04T06:40:59.902Z,100450.91
2022-12-04T06:44:01.908Z,100453.53
2022-12-04T06:47:03.857Z,100458.75
2022-12-04T06:50:07.052Z,100457.13
2022-12-04T06:53:09.056Z,100462.41
2022-12-04T06:56:14.461Z,100463.22
2022-12-04T06:59:16.584Z,100463.34
2022-12-04T07:02:18.746Z,100467.81
2022-12-04T07:05:20.726Z,100474.00
2022-12-04T07:08:22.991Z,100467.97
2022-12-04T07:11:25.328Z,100473.12
2022-12-04T07:14:27.629Z,100461.91
2022-12-04T07:17:29.644Z,100462.84
2022-12-04T07:20:31.981Z,100465.53
2022-12-04T07:23:34.601Z,100465.53
2022-12-04T07:26:36.593Z,100471.72
2022-12-04T07:29:38.681Z,100466.56
2022-12-04T07:32:40.744Z,100461.44
2022-12-04T07:35:42.764Z,100461.53
2022-12-04T07:38:44.829Z,100449.31
2022-12-04T07:41:47.263Z,100454.59
2022-12-04T07:44:49.432Z,100457.28
2022-12-04T07:47:51.386Z,100456.28
2022-12-04T07:51:03.803Z,100457.16
2022-12-04T07:54:06.130Z,100458.97
2022-12-04T07:57:08.157Z,100469.44
2022-12-04T08:00:11.140Z,100470.28
2022-12-04T08:03:13.188Z,100467.66
2022-12-04T08:06:16.185Z,100463.41
2022-12-04T08:09:18.423Z,100461.59
2022-12-04T08:12:20.424Z,100459.06
2022-12-04T08:15:22.363Z,100458.13
2022-12-04T08:18:24.382Z,100459.69
2022-12-04T08:21:29.490Z,100471.75
2022-12-04T08:24:31.515Z,100479.62
2022-12-04T08:27:34.033Z,100476.34
2022-12-04T08:30:36.431Z,100479.81
2022-12-04T08:33:38.723Z,100484.13
2022-12-04T08:36:40.927Z,100475.44
2022-12-04T08:39:42.898Z,100474.59
2022-12-04T08:42:44.893Z,100482.34
2022-12-04T08:45:55.970Z,100479.66
2022-12-04T08:48:58.617Z,100487.47
2022-12-04T08:52:00.569Z,100483.91
2022-12-04T08:55:02.637Z,100491.94
2022-12-04T08:58:04.661Z,100490.34
2022-12-04T09:01:10.628Z,100495.63
2022-12-04T09:04:13.554Z,100486.94
2022-12-04T09:07:16.030Z,100485.34
2022-12-04T09:10:18.558Z,100496.56
2022-12-04T09:13:21.045Z,100493.09
2022-12-04T09:16:25.244Z,100497.38
2022-12-04T09:19:29.145Z,100502.53
2022-12-04T09:22:51.377Z,100488.41
2022-12-04T09:25:54.631Z,100492.78
2022-12-04T09:29:00.178Z,100481.56
2022-12-04T09:32:02.179Z,100478.13
2022-12-04T09:35:06.836Z,100479.91
2022-12-04T09:38:09.362Z,100489.47
2022-12-04T09:41:33.795Z,100489.50
2022-12-04T09:45:07.979Z,100484.47
2022-12-04T09:48:12.682Z,100502.00
2022-12-04T09:51:19.414Z,100495.09
2022-12-04T09:54:26.531Z,100500.25
2022-12-04T09:57:44.281Z,100483.63
2022-12-04T10:00:50.482Z,100480.09
2022-12-04T10:03:54.737Z,100479.09
2022-12-04T10:07:17.126Z,100476.47
2022-12-04T10:10:37.440Z,100463.34
2022-12-04T10:14:02.030Z,100460.66
2022-12-04T10:17:20.276Z,100444.06
2022-12-04T10:20:38.214Z,100451.69
2022-12-04T10:23:46.782Z,100447.31
2022-12-04T10:26:49.921Z,100442.09
2022-12-04T10:29:58.369Z,100438.59
2022-12-04T10:33:13.401Z,100435.25
2022-12-04T10:36:22.158Z,100444.16
2022-12-04T10:39:33.381Z,100426.84
2022-12-04T10:42:56.192Z,100418.12
2022-12-04T10:45:58.720Z,100412.03
2022-12-04T10:49:12.549Z,100430.25
2022-12-04T10:52:14.568Z,100428.56
2022-12-04T10:55:31.572Z,100418.88
2022-12-04T10:58:33.701Z,100423.31
2022-12-04T11:01:36.129Z,100426.87
2022-12-04T11:04:38.303Z,100413.78
2022-12-04T11:07:47.135Z,100408.56
2022-12-04T11:11:00.520Z,100403.34
2022-12-04T11:14:14.868Z,100402.44
2022-12-04T11:17:20.051Z,100405.88
2022-12-04T11:20:26.507Z,100392.81
2022-12-04T11:23:43.713Z,100404.19
2022-12-04T11:26:47.452Z,100406.91
2022-12-04T11:29:52.518Z,100413.03
2022-12-04T11:32:55.695Z,100408.72
2022-12-04T11:36:03.420Z,100414.72
2022-12-04T11:39:30.090Z,100425.94
2022-12-04T11:42:33.208Z,100427.81
2022-12-04T11:45:35.442Z,100426.00
2022-12-04T11:48:45.566Z,100425.00
2022-12-04T11:52:46.307Z,100420.63
2022-12-04T11:55:59.075Z,100418.75
2022-12-04T11:59:35.897Z,100411.78
2022-12-04T12:02:56.973Z,100411.78
2022-12-04T12:06:25.815Z,100408.28
2022-12-04T12:09:43.192Z,100409.25
2022-12-04T12:13:06.034Z,100398.91
2022-12-04T12:16:25.675Z,100406.72
2022-12-04T12:19:36.775Z,100410.19
2022-12-04T12:23:06.608Z,100411.88
2022-12-04T12:26:15.950Z,100417.13
2022-12-04T12:29:34.095Z,100423.19
2022-12-04T12:32:45.857Z,100422.34
2022-12-04T12:36:14.593Z,100429.25
2022-12-04T12:39:23.524Z,100427.41
2022-12-04T12:42:31.021Z,100429.09
2022-12-04T12:45:43.123Z,100417.66
2022-12-04T12:49:01.175Z,100418.62
2022-12-04T12:52:20.581Z,100411.72
2022-12-04T12:55:41.525Z,100406.56
2022-12-04T12:58:51.054Z,100411.72
2022-12-04T13:02:14.710Z,100418.75
2022-12-04T13:05:25.539Z,100417.88
2022-12-04T13:08:35.395Z,100416.19
2022-12-04T13:11:38.880Z,100418.78
2022-12-04T13:14:44.675Z,100426.56
2022-12-04T13:17:55.788Z,100422.41
2022-12-04T13:21:03.167Z,100419.00
2022-12-04T13:24:35.255Z,100415.50
2022-12-04T13:27:58.447Z,100405.12
2022-12-04T13:31:26.009Z,100412.91
2022-12-04T13:34:33.953Z,100412.97
2022-12-04T13:37:38.827Z,100413.78
2022-12-04T13:40:47.919Z,100418.12
2022-12-04T13:43:52.375Z,100425.88
2022-12-04T13:46:57.279Z,100418.94
2022-12-04T13:50:17.995Z,100418.94
2022-12-04T13:53:40.520Z,100417.13
2022-12-04T13:56:49.087Z,100417.13
2022-12-04T14:00:05.210Z,100421.41
2022-12-04T14:03:25.633Z,100410.09
2022-12-04T14:06:43.739Z,100404.81
2022-12-04T14:09:53.756Z,100415.19
2022-12-04T14:13:00.620Z,100415.16
2022-12-04T14:16:30.244Z,100413.50
2022-12-04T14:19:36.135Z,100420.47
2022-12-04T14:22:38.145Z,100425.62
2022-12-04T14:25:40.789Z,100415.16
2022-12-04T14:28:44.391Z,100409.87
2022-12-04T14:31:46.908Z,100409.16
2022-12-04T14:34:50.123Z,100419.69
2022-12-04T14:38:04.349Z,100415.34
2022-12-04T14:44:36.778Z,100431.09
2022-12-04T14:48:06.256Z,100425.03
2022-12-04T14:51:25.739Z,100427.66
2022-12-04T14:54:36.603Z,100435.47
2022-12-04T14:57:48.367Z,100431.94
2022-12-04T15:00:55.638Z,100434.56
2022-12-04T15:04:04.547Z,100426.69
2022-12-04T15:07:08.384Z,100432.75
2022-12-04T15:10:47.955Z,100431.84
2022-12-04T15:13:51.042Z,100430.94
2022-12-04T15:17:06.494Z,100428.34
2022-12-04T15:20:20.205Z,100424.03
2022-12-04T15:23:35.057Z,100428.41
2022-12-04T15:26:39.125Z,100421.41
2022-12-04T15:29:48.857Z,100429.19
2022-12-04T15:32:55.599Z,100429.19
2022-12-04T15:36:03.702Z,100430.03
2022-12-04T15:39:06.991Z,100427.31
2022-12-04T15:42:17.589Z,100426.41
2022-12-04T15:45:19.746Z,100430.78
2022-12-04T15:48:30.741Z,100427.25
2022-12-04T15:51:35.998Z,100427.25
2022-12-04T15:54:43.931Z,100413.28
2022-12-04T15:57:54.640Z,100415.88
2022-12-04T16:01:07.301Z,100415.00
2022-12-04T16:04:22.320Z,100413.28
2022-12-04T16:07:30.143Z,100422.00
2022-12-04T16:10:35.168Z,100425.41
2022-12-04T16:13:39.385Z,100425.38
2022-12-04T16:16:45.074Z,100424.56
2022-12-04T16:19:48.128Z,100428.88
2022-12-04T16:22:55.153Z,100430.53
2022-12-04T16:25:58.171Z,100426.16
2022-12-04T16:29:01.295Z,100439.16
2022-12-04T16:32:04.091Z,100446.97
2022-12-04T16:35:07.666Z,100454.75
2022-12-04T16:38:17.803Z,100453.87
2022-12-04T16:41:22.142Z,100446.00
2022-12-04T16:44:24.589Z,100448.59
2022-12-04T16:47:27.278Z,100444.22
2022-12-04T16:50:30.698Z,100448.53
2022-12-04T16:53:33.771Z,100452.91
2022-12-04T16:56:35.867Z,100444.13
2022-12-04T16:59:38.129Z,100443.22
2022-12-04T17:02:41.153Z,100444.06
2022-12-04T17:05:43.740Z,100442.38
2022-12-04T17:08:46.386Z,100442.34
2022-12-04T17:11:49.220Z,100431.84
2022-12-04T17:14:55.763Z,100430.09
2022-12-04T17:17:58.436Z,100439.66
2022-12-04T17:21:06.504Z,100431.00
2022-12-04T17:24:09.582Z,100441.44
2022-12-04T17:27:14.806Z,100444.97
2022-12-04T17:30:18.266Z,100446.72
2022-12-04T17:33:20.591Z,100440.53
2022-12-04T17:36:26.666Z,100455.44
2022-12-04T17:39:29.576Z,100454.50
2022-12-04T17:42:32.588Z,100449.22
2022-12-04T17:45:35.056Z,100452.66
2022-12-04T17:48:38.565Z,100463.09
2022-12-04T17:51:40.765Z,100459.59
2022-12-04T17:54:42.741Z,100469.09
2022-12-04T17:57:45.042Z,100467.34
2022-12-04T18:00:47.712Z,100465.56
2022-12-04T18:03:53.933Z,100469.03
2022-12-04T18:06:57.079Z,100469.81
2022-12-04T18:09:59.836Z,100465.41
2022-12-04T18:13:02.754Z,100468.84
2022-12-04T18:16:12.682Z,100469.72
2022-12-04T18:19:15.914Z,100464.47
2022-12-04T18:22:19.551Z,100455.72
2022-12-04T18:25:22.168Z,100465.28
2022-12-04T18:28:25.353Z,100467.00
2022-12-04T18:31:27.809Z,100472.25
2022-12-04T18:34:30.216Z,100472.19
2022-12-04T18:37:34.185Z,100476.47
2022-12-04T18:40:36.967Z,100478.19
2022-12-04T18:43:42.894Z,100478.16
2022-12-04T18:46:45.738Z,100478.91
2022-12-04T18:49:48.337Z,100478.00
2022-12-04T18:52:57.764Z,100490.22
2022-12-04T18:56:02.705Z,100496.28
2022-12-04T18:59:16.652Z,100497.16
2022-12-04T19:02:19.183Z,100497.16
2022-12-04T19:05:21.907Z,100503.31
2022-12-04T19:08:28.497Z,100497.22
2022-12-04T19:11:34.626Z,100500.75
2022-12-04T19:14:38.553Z,100500.66
2022-12-04T19:17:41.128Z,100499.75
2022-12-04T19:20:47.656Z,100509.28
2022-12-04T19:23:53.788Z,100504.00
2022-12-04T19:26:56.479Z,100502.22
2022-12-04T19:30:00.660Z,100499.59
2022-12-04T19:33:03.787Z,100496.06
2022-12-04T19:36:06.985Z,100501.28
2022-12-04T19:39:10.677Z,100509.13
2022-12-04T19:42:13.249Z,100503.88
2022-12-04T19:45:17.829Z,100499.50
2022-12-04T19:48:20.661Z,100494.28
2022-12-04T19:51:24.721Z,100489.84
2022-12-04T19:54:28.022Z,100503.81
2022-12-04T19:57:30.150Z,100508.94
2022-12-04T20:00:32.653Z,100516.72
2022-12-04T20:03:36.301Z,100521.06
2022-12-04T20:06:44.307Z,100528.03
2022-12-04T20:09:52.029Z,100529.81
2022-12-04T20:12:54.971Z,100528.13
2022-12-04T20:16:02.631Z,100530.66
2022-12-04T20:19:07.162Z,100524.56
2022-12-04T20:22:09.836Z,100530.59
2022-12-04T20:25:13.476Z,100536.59
2022-12-04T20:28:16.024Z,100529.56
2022-12-04T20:31:30.049Z,100521.72
2022-12-04T20:34:32.762Z,100524.28
2022-12-04T20:37:36.498Z,100526.03
2022-12-04T20:40:39.271Z,100523.38
2022-12-04T20:43:46.122Z,100516.41
2022-12-04T20:46:49.285Z,100519.03
2022-12-04T20:49:51.823Z,100527.78
2022-12-04T20:52:55.228Z,100526.94
2022-12-04T20:55:57.299Z,100524.25
2022-12-04T20:59:06.531Z,100532.03
2022-12-04T21:02:11.715Z,100533.72
2022-12-04T21:05:14.152Z,100538.91
2022-12-04T21:08:39.541Z,100530.22
2022-12-04T21:11:48.282Z,100521.53
2022-12-04T21:15:08.919Z,100538.06
2022-12-04T21:18:11.179Z,100533.69
2022-12-04T21:21:13.204Z,100525.78
2022-12-04T21:24:17.538Z,100529.31
2022-12-04T21:27:21.347Z,100531.94
2022-12-04T21:30:23.563Z,100535.47
2022-12-04T21:33:26.013Z,100538.16
2022-12-04T21:36:29.138Z,100543.38
2022-12-04T21:39:31.329Z,100540.78
2022-12-04T21:42:34.632Z,100549.56
2022-12-04T21:45:36.586Z,100552.19
2022-12-04T21:48:39.188Z,100546.97
2022-12-04T21:51:57.134Z,100540.94
2022-12-04T21:54:59.997Z,100545.34
2022-12-04T21:58:01.974Z,100548.87
2022-12-04T22:01:24.623Z,100549.72
2022-12-04T22:04:26.846Z,100552.37
2022-12-04T22:07:28.971Z,100557.59
2022-12-04T22:10:31.671Z,100549.75
2022-12-04T22:13:33.991Z,100543.62
2022-12-04T22:16:41.566Z,100540.94
2022-12-04T22:19:44.763Z,100543.62
2022-12-04T22:22:46.749Z,100535.91
2022-12-04T22:25:48.743Z,100533.38
2022-12-04T22:28:51.102Z,100534.28
2022-12-04T22:31:53.135Z,100531.75
2022-12-04T22:34:55.205Z,100538.81
2022-12-04T22:37:57.230Z,100538.81
2022-12-04T22:41:04.197Z,100531.84
2022-12-04T22:44:06.389Z,100522.38
2022-12-04T22:47:08.469Z,100520.69
2022-12-04T22:50:12.176Z,100522.47
2022-12-04T22:53:14.206Z,100520.69
2022-12-04T22:56:28.067Z,100514.63
2022-12-04T22:59:30.139Z,100509.41
2022-12-04T23:02:33.124Z,100502.47
2022-12-04T23:05:35.366Z,100507.78
2022-12-04T23:08:38.646Z,100509.44
2022-12-04T23:11:41.540Z,100506.06
2022-12-04T23:14:43.442Z,100504.31
2022-12-04T23:17:45.720Z,100510.53
2022-12-04T23:20:47.691Z,100501.00
2022-12-04T23:23:52.183Z,100499.25
2022-12-04T23:26:54.537Z,100509.72
2022-12-04T23:29:56.693Z,100506.25
2022-12-04T23:32:58.692Z,100508.03
2022-12-04T23:36:02.433Z,100504.50
2022-12-04T23:39:04.544Z,100509.78
2022-12-04T23:42:06.914Z,100511.53
2022-12-04T23:45:09.254Z,100518.56
2022-12-04T23:48:11.458Z,100519.56
2022-12-04T23:51:15.723Z,100518.72
2022-12-04T23:54:17.955Z,100518.81
2022-12-04T23:57:19.999Z,100517.16
